Time;durP1;ratioP1;P1;durP2;ratioP2;P2;SDS_P1;SDS_P2;PMS_P1;PMS_P2;Temp;Humidity;BMP_temperature;BMP_pressure;BME280_temperature;BME280_humidity;BME280_pressure;Samples;Min_cycle;Max_cycle;Signal;HPM_P1;HPM_P2
2021/03/02 00:01:17;;;;;;;;;21.00;18.25;;;;;11.81;47.87;100264.09;4785093;29;101622;-94
2021/03/02 00:03:44;;;;;;;;;21.50;19.00;;;;;11.77;47.98;100263.59;4770967;29;102165;-94
2021/03/02 00:06:11;;;;;;;;;20.25;17.00;;;;;11.80;47.76;100265.94;4784859;29;104148;-95
2021/03/02 00:08:38;;;;;;;;;21.75;17.00;;;;;11.81;47.64;100274.94;4772920;29;101801;-95
2021/03/02 00:11:05;;;;;;;;;18.25;14.75;;;;;11.80;48.24;100270.50;4787923;29;101914;-95
2021/03/02 00:13:32;;;;;;;;;24.25;17.75;;;;;11.80;47.63;100265.09;4774203;29;102093;-94
2021/03/02 00:16:00;;;;;;;;;21.50;16.25;;;;;11.79;48.14;100263.44;4772833;29;103095;-96
2021/03/02 00:18:28;;;;;;;;;20.50;17.50;;;;;11.77;47.87;100268.16;4788785;29;101845;-95
2021/03/02 00:21:03;;;;;;;;;20.50;18.25;;;;;11.74;47.87;100253.09;4772660;29;101556;-94
2021/03/02 00:23:40;;;;;;;;;21.50;17.50;;;;;11.74;47.98;100253.09;4770714;29;101705;-95
2021/03/02 00:26:07;;;;;;;;;26.25;20.50;;;;;11.75;47.70;100259.34;4787422;29;104036;-94
2021/03/02 00:28:34;;;;;;;;;20.75;17.00;;;;;11.74;48.06;100263.06;4772848;29;101938;-96
2021/03/02 00:31:01;;;;;;;;;23.00;20.00;;;;;11.77;47.79;100273.56;4773381;29;101826;-95
2021/03/02 00:33:28;;;;;;;;;23.25;18.50;;;;;11.77;48.19;100270.84;4774014;29;102244;-94
2021/03/02 00:35:55;;;;;;;;;22.25;21.00;;;;;11.74;47.99;100263.06;4787356;29;103238;-96
2021/03/02 00:38:22;;;;;;;;;20.25;18.00;;;;;11.75;47.54;100259.34;4773550;29;101877;-95
2021/03/02 00:40:48;;;;;;;;;20.75;18.25;;;;;11.74;47.83;100254.94;4772741;29;101872;-95
2021/03/02 00:43:15;;;;;;;;;20.50;16.75;;;;;11.71;47.82;100237.09;4773747;29;102102;-95
2021/03/02 00:45:42;;;;;;;;;23.25;20.25;;;;;11.73;47.73;100247.81;4772192;29;104392;-95
2021/03/02 00:48:09;;;;;;;;;18.00;16.25;;;;;11.71;47.37;100245.25;4772907;29;101726;-94
2021/03/02 00:50:36;;;;;;;;;19.50;17.00;;;;;11.73;47.87;100239.69;4787466;29;101603;-95
2021/03/02 00:53:03;;;;;;;;;19.75;18.50;;;;;11.70;47.52;100238.16;4773709;29;102135;-95
2021/03/02 00:55:30;;;;;;;;;23.75;20.25;;;;;11.70;47.97;100242.72;4772194;29;103268;-95
2021/03/02 00:57:57;;;;;;;;;20.50;18.25;;;;;11.73;48.01;100240.53;4787578;29;101825;-95
2021/03/02 01:00:24;;;;;;;;;21.50;18.25;;;;;11.73;47.60;100248.69;4772293;29;101890;-95
2021/03/02 01:02:51;;;;;;;;;21.50;16.25;;;;;11.70;47.51;100240.00;4788425;29;102261;-96
2021/03/02 01:05:18;;;;;;;;;19.00;17.25;;;;;11.68;47.68;100232.03;4772479;29;104156;-95
2021/03/02 01:07:45;;;;;;;;;20.75;17.50;;;;;11.70;47.59;100245.44;4771832;29;102077;-96
2021/03/02 01:10:12;;;;;;;;;20.25;15.75;;;;;11.70;47.54;100240.84;4772409;29;101802;-96
2021/03/02 01:12:39;;;;;;;;;22.00;17.75;;;;;11.71;47.84;100230.88;4788733;29;102189;-96
2021/03/02 01:15:07;;;;;;;;;16.00;15.25;;;;;11.69;47.49;100227.47;4772108;29;104260;-94
2021/03/02 01:17:35;;;;;;;;;20.00;16.75;;;;;11.70;47.31;100230.03;4772205;29;101595;-96
2021/03/02 01:20:03;;;;;;;;;20.25;18.75;;;;;11.68;47.46;100221.19;4787604;29;101840;-96
2021/03/02 01:22:30;;;;;;;;;22.50;17.75;;;;;11.66;47.83;100219.69;4773485;29;102207;-96
2021/03/02 01:24:57;;;;;;;;;25.75;20.25;;;;;11.66;47.82;100216.97;4771843;29;104016;-95
2021/03/02 01:27:23;;;;;;;;;21.75;19.25;;;;;11.69;47.80;100222.06;4772160;29;101849;-95
2021/03/02 01:29:50;;;;;;;;;21.00;19.50;;;;;11.68;47.92;100214.94;4771717;29;101829;-95
2021/03/02 01:32:17;;;;;;;;;25.00;16.25;;;;;11.69;47.84;100205.78;4773096;29;102160;-95
2021/03/02 01:34:44;;;;;;;;;21.25;15.00;;;;;11.64;47.38;100209.88;4771500;29;104015;-95
2021/03/02 01:37:10;;;;;;;;;18.00;16.25;;;;;11.66;47.91;100206.13;4771960;29;101613;-95
2021/03/02 01:39:37;;;;;;;;;22.00;17.25;;;;;11.67;47.59;100196.97;4771923;29;101697;-94
2021/03/02 01:42:05;;;;;;;;;24.25;17.25;;;;;11.67;47.79;100194.25;4773043;29;102225;-94
2021/03/02 01:44:31;;;;;;;;;21.50;19.00;;;;;11.67;47.97;100194.25;4771468;29;104035;-95
2021/03/02 01:46:58;;;;;;;;;22.50;19.00;;;;;11.63;47.86;100189.19;4771997;29;101783;-96
2021/03/02 01:49:25;;;;;;;;;20.25;17.00;;;;;11.64;47.61;100188.19;4771949;29;101880;-95
2021/03/02 01:51:52;;;;;;;;;23.25;17.00;;;;;11.66;47.81;100184.47;4772929;29;102221;-96
2021/03/02 01:54:19;;;;;;;;;20.75;19.50;;;;;11.66;47.35;100184.47;4771755;29;103993;-94
2021/03/02 01:56:45;;;;;;;;;22.50;17.25;;;;;11.62;47.32;100182.06;4771671;29;101913;-95
2021/03/02 01:59:12;;;;;;;;;23.00;18.50;;;;;11.61;47.41;100172.28;4771699;29;101786;-96
2021/03/02 02:01:39;;;;;;;;;20.00;17.75;;;;;11.61;47.85;100172.28;4773031;29;102115;-95
2021/03/02 02:04:20;;;;;;;;;22.00;17.25;;;;;11.68;47.63;100188.69;4786255;29;105373;-95
2021/03/02 02:07:09;;;;;;;;;22.00;19.75;;;;;11.67;47.88;100188.84;4786099;29;101879;-95
2021/03/02 02:09:40;;;;;;;;;20.25;18.50;;;;;11.63;47.62;100175.66;4786458;29;101586;-95
2021/03/02 02:12:17;;;;;;;;;26.25;20.25;;;;;11.62;47.14;100173.94;4787751;29;101606;-95
2021/03/02 02:14:50;;;;;;;;;21.25;16.00;;;;;11.67;47.35;100186.13;4783735;29;102846;-96
2021/03/02 02:17:26;;;;;;;;;19.75;17.75;;;;;11.67;47.44;100191.56;4786931;29;101837;-95
2021/03/02 02:19:55;;;;;;;;;27.50;17.75;;;;;11.66;47.70;100185.31;4786428;29;101821;-95
2021/03/02 02:22:30;;;;;;;;;18.00;14.25;;;;;11.67;47.17;100180.72;4772196;29;102178;-95
2021/03/02 02:25:13;;;;;;;;;19.50;17.50;;;;;11.60;47.63;100170.56;4785843;29;104314;-96
2021/03/02 02:27:43;;;;;;;;;21.25;18.50;;;;;11.63;47.75;100185.63;4786940;29;101828;-95
2021/03/02 02:30:11;;;;;;;;;14.75;13.00;;;;;11.62;47.91;100182.06;4786312;29;101831;-95
2021/03/02 02:32:38;;;;;;;;;18.75;15.25;;;;;11.61;47.84;100187.69;4772286;29;102153;-95
2021/03/02 02:35:06;;;;;;;;;22.75;17.25;;;;;11.61;47.56;100182.25;4770773;29;104009;-95
2021/03/02 02:37:32;;;;;;;;;21.25;17.75;;;;;11.58;47.48;100178.00;4786335;29;101656;-96
2021/03/02 02:39:59;;;;;;;;;20.50;18.50;;;;;11.57;47.41;100178.19;4771367;29;101826;-95
2021/03/02 02:42:26;;;;;;;;;17.75;15.00;;;;;11.59;48.00;100179.72;4772137;29;102171;-96
2021/03/02 02:44:53;;;;;;;;;18.50;16.25;;;;;11.63;47.47;100191.91;4771122;29;104052;-95
2021/03/02 02:47:20;;;;;;;;;17.75;15.25;;;;;11.63;47.62;100181.06;4773290;29;101672;-95
2021/03/02 02:49:47;;;;;;;;;15.00;13.00;;;;;11.56;47.54;100180.06;4774235;29;101796;-95
2021/03/02 02:52:15;;;;;;;;;22.25;16.25;;;;;11.58;47.98;100183.44;4790236;29;102297;-95
2021/03/02 02:54:48;;;;;;;;;22.75;15.00;;;;;11.61;47.41;100184.97;4773649;29;104321;-95
2021/03/02 02:57:16;;;;;;;;;23.00;17.25;;;;;11.58;47.69;100183.44;4773995;29;101921;-95
2021/03/02 02:59:43;;;;;;;;;21.00;15.50;;;;;11.59;47.86;100181.56;4789011;29;101780;-95
2021/03/02 03:02:14;;;;;;;;;17.25;14.75;;;;;11.53;47.62;100185.78;4790315;29;102157;-95
2021/03/02 03:04:44;;;;;;;;;23.00;18.50;;;;;11.61;47.54;100193.09;4786415;29;103290;-95
2021/03/02 03:07:23;;;;;;;;;20.75;16.00;;;;;11.60;47.43;100199.53;4773684;29;101661;-95
2021/03/02 03:09:51;;;;;;;;;22.75;17.25;;;;;11.55;47.56;100189.19;4771852;29;101941;-95
2021/03/02 03:12:18;;;;;;;;;17.50;14.25;;;;;11.56;47.51;100185.47;4774947;29;102295;-95
2021/03/02 03:14:52;;;;;;;;;21.00;15.25;;;;;11.56;47.91;100184.63;4773754;29;103034;-94
2021/03/02 03:17:19;;;;;;;;;18.75;15.25;;;;;11.52;47.43;100173.28;4771700;29;101901;-95
2021/03/02 03:19:47;;;;;;;;;21.75;16.00;;;;;11.54;47.69;100171.25;4774016;29;101797;-95
2021/03/02 03:22:15;;;;;;;;;18.75;17.25;;;;;11.55;47.76;100177.50;4789755;29;102176;-95
2021/03/02 03:24:42;;;;;;;;;16.50;15.25;;;;;11.52;47.62;100173.28;4788531;29;103979;-95
2021/03/02 03:27:08;;;;;;;;;18.50;14.75;;;;;11.52;47.54;100167.88;4773747;29;101796;-94
2021/03/02 03:29:35;;;;;;;;;19.75;16.00;;;;;11.51;47.75;100177.00;4773561;29;101684;-95
2021/03/02 03:32:02;;;;;;;;;15.00;12.00;;;;;11.57;47.89;100184.44;4789929;29;102404;-96
2021/03/02 03:34:29;;;;;;;;;14.25;12.25;;;;;11.58;47.38;100188.84;4773921;29;103140;-96
2021/03/02 03:36:56;;;;;;;;;15.75;15.25;;;;;11.52;47.50;100181.41;4774175;29;101879;-95
2021/03/02 03:39:22;;;;;;;;;14.50;14.00;;;;;11.51;47.65;100185.13;4773569;29;101839;-96
2021/03/02 03:41:50;;;;;;;;;18.25;15.25;;;;;11.52;47.63;100189.53;4774748;29;102255;-95
2021/03/02 03:44:16;;;;;;;;;20.50;17.50;;;;;11.53;47.42;100185.78;4773242;29;103339;-95
2021/03/02 03:46:43;;;;;;;;;18.50;13.00;;;;;11.52;47.67;100184.13;4773458;29;101723;-95
2021/03/02 03:49:10;;;;;;;;;16.75;13.00;;;;;11.50;47.45;100183.44;4773286;29;101948;-94
2021/03/02 03:51:37;;;;;;;;;17.00;16.50;;;;;11.49;47.15;100189.84;4774318;29;102173;-96
2021/03/02 03:54:06;;;;;;;;;16.75;16.50;;;;;11.51;47.66;100193.25;4773319;29;103173;-94
2021/03/02 03:56:34;;;;;;;;;20.00;16.50;;;;;11.54;47.59;100190.19;4773422;29;101646;-94
2021/03/02 03:59:02;;;;;;;;;21.00;17.00;;;;;11.51;47.44;100187.00;4788039;29;101821;-95
2021/03/02 04:01:30;;;;;;;;;17.25;14.50;;;;;11.50;47.64;100186.13;4789179;29;102226;-95
2021/03/02 04:03:56;;;;;;;;;16.25;14.75;;;;;11.50;47.24;100185.28;4787987;29;102887;-95
2021/03/02 04:06:23;;;;;;;;;19.25;17.25;;;;;11.50;47.73;100180.72;4772941;29;101864;-95
2021/03/02 04:08:50;;;;;;;;;18.50;12.00;;;;;11.54;47.49;100184.78;4772994;29;101865;-95
2021/03/02 04:12:07;;;;;;;;;18.00;14.25;;;;;11.58;47.40;100179.88;4774245;29;102188;-95
2021/03/02 04:20:22;;;;;;;;;14.25;12.75;;;;;11.70;47.48;100181.25;4719631;29;102821;-76
2021/03/02 04:22:50;;;;;;;;;15.50;12.00;;;;;11.74;47.24;100179.06;4711298;29;102932;-78
2021/03/02 04:25:17;;;;;;;;;13.50;11.00;;;;;11.76;47.28;100182.44;4728047;29;104076;-78
2021/03/02 04:27:44;;;;;;;;;12.75;12.25;;;;;11.78;47.23;100178.56;4725739;29;102963;-78
2021/03/02 04:30:12;;;;;;;;;12.00;11.50;;;;;11.81;46.90;100177.34;4724896;29;102866;-78
2021/03/02 04:32:38;;;;;;;;;11.50;9.75;;;;;11.83;47.14;100178.06;4724747;29;104718;-78
2021/03/02 04:35:06;;;;;;;;;10.75;7.50;;;;;11.85;47.06;100173.28;4726489;29;104052;-78
2021/03/02 04:37:33;;;;;;;;;10.50;10.50;;;;;11.85;46.65;100167.88;4731048;29;102829;-78
2021/03/02 04:40:00;;;;;;;;;12.50;11.00;;;;;11.87;46.87;100169.41;4727928;29;102986;-78
2021/03/02 04:42:26;;;;;;;;;14.75;12.25;;;;;11.89;46.91;100169.22;4724053;29;102961;-78
2021/03/02 04:44:53;;;;;;;;;16.00;13.00;;;;;11.90;46.46;100165.50;4722755;29;104048;-78
2021/03/02 04:47:20;;;;;;;;;12.25;10.25;;;;;11.90;47.06;100176.34;4727944;29;102803;-78
2021/03/02 04:49:47;;;;;;;;;13.00;11.50;;;;;11.91;47.04;100178.88;4727863;29;103115;-78
2021/03/02 04:52:13;;;;;;;;;10.00;9.75;;;;;11.93;46.68;100170.59;4725169;29;104536;-78
2021/03/02 04:54:40;;;;;;;;;6.00;6.00;;;;;11.93;46.40;100176.84;4723208;29;104039;-78
2021/03/02 04:57:07;;;;;;;;;13.00;12.00;;;;;11.94;47.01;100172.25;4728492;29;104241;-78
2021/03/02 04:59:34;;;;;;;;;11.75;10.75;;;;;11.94;46.74;100169.56;4724771;29;102846;-78
2021/03/02 05:02:01;;;;;;;;;10.75;10.25;;;;;11.94;46.87;100161.41;4728560;29;103955;-78
2021/03/02 05:04:28;;;;;;;;;17.00;12.00;;;;;11.95;46.55;100169.41;4727040;29;104064;-78
2021/03/02 05:06:55;;;;;;;;;12.50;11.00;;;;;11.96;46.46;100173.81;4730568;29;104411;-78
2021/03/02 05:09:21;;;;;;;;;11.50;9.50;;;;;11.96;46.69;100172.94;4728861;29;103696;-78
2021/03/02 05:11:48;;;;;;;;;14.00;10.75;;;;;11.97;47.02;100166.53;4729493;29;102885;-78
2021/03/02 05:14:15;;;;;;;;;13.50;11.00;;;;;11.95;46.26;100171.25;4730218;29;104562;-78
2021/03/02 05:16:41;;;;;;;;;12.25;10.75;;;;;11.94;46.47;100170.41;4718030;29;103034;-78
2021/03/02 05:19:08;;;;;;;;;13.00;11.00;;;;;11.94;46.61;100167.69;4716153;29;104233;-78
2021/03/02 05:21:35;;;;;;;;;14.75;12.75;;;;;11.94;46.89;100180.41;4715439;29;103197;-78
2021/03/02 05:24:02;;;;;;;;;14.75;11.50;;;;;11.95;46.78;100163.13;4718606;29;104082;-78
2021/03/02 05:26:28;;;;;;;;;15.00;11.25;;;;;11.95;46.82;100171.25;4717205;29;103316;-78
2021/03/02 05:28:57;;;;;;;;;13.00;11.75;;;;;11.93;46.82;100168.69;4716750;29;103782;-78
2021/03/02 05:31:24;;;;;;;;;15.25;11.75;;;;;11.93;46.58;100166.00;4716083;29;102922;-78
2021/03/02 05:33:51;;;;;;;;;14.75;13.00;;;;;11.93;46.79;100160.56;4717874;29;104025;-78
2021/03/02 05:36:17;;;;;;;;;12.75;11.25;;;;;11.93;46.79;100157.84;4719961;29;102938;-78
2021/03/02 05:38:44;;;;;;;;;14.75;9.25;;;;;11.91;47.11;100164.50;4719654;29;102899;-78
2021/03/02 05:41:11;;;;;;;;;13.50;9.75;;;;;11.91;47.08;100156.34;4716980;29;102930;-78
2021/03/02 05:43:41;;;;;;;;;8.25;8.25;;;;;11.91;46.83;100164.50;4718928;29;104478;-78
2021/03/02 05:46:27;;;;;;;;;13.00;12.00;;;;;11.91;46.91;100175.31;4717275;29;102876;-78
2021/03/02 05:48:53;;;;;;;;;11.00;10.00;;;;;11.90;47.21;100168.22;4716321;29;102750;-78
2021/03/02 05:51:20;;;;;;;;;13.75;12.00;;;;;11.89;46.74;100175.50;4692068;29;102980;-78
2021/03/02 05:53:47;;;;;;;;;12.00;8.75;;;;;11.89;46.89;100175.50;4720073;29;104079;-78
2021/03/02 05:56:14;;;;;;;;;12.00;10.25;;;;;11.89;46.52;100170.06;4711873;29;103393;-78
2021/03/02 05:58:41;;;;;;;;;13.75;11.00;;;;;11.90;46.43;100170.91;4714592;29;102786;-78
2021/03/02 06:01:08;;;;;;;;;13.00;11.00;;;;;11.88;46.44;100178.38;4704116;29;103005;-78
2021/03/02 06:03:36;;;;;;;;;14.00;11.00;;;;;11.88;46.67;100178.38;4711615;29;104823;-78
2021/03/02 06:06:06;;;;;;;;;14.50;11.25;;;;;11.88;46.75;100179.25;4717825;29;103155;-78
2021/03/02 06:08:33;;;;;;;;;13.25;10.25;;;;;11.87;46.98;100185.66;4714688;29;102696;-78
2021/03/02 06:11:22;;;;;;;;;11.25;8.00;;;;;11.87;46.51;100179.41;4693259;29;103040;-78
2021/03/02 06:13:49;;;;;;;;;12.75;10.75;;;;;11.87;46.78;100179.41;4712718;29;104154;-78
2021/03/02 06:16:16;;;;;;;;;12.00;12.00;;;;;11.85;46.88;100190.41;4703647;29;102865;-78
2021/03/02 06:18:52;;;;;;;;;10.25;10.00;;;;;11.86;46.54;100185.81;4711721;29;102869;-78
2021/03/02 06:21:20;;;;;;;;;11.75;11.00;;;;;11.84;47.08;100180.56;4724193;29;102849;-78
2021/03/02 06:23:51;;;;;;;;;12.25;11.00;;;;;11.85;47.20;100181.41;4725395;29;104077;-78
2021/03/02 06:26:26;;;;;;;;;14.75;12.00;;;;;11.84;46.78;100177.03;4708040;29;102817;-78
2021/03/02 06:28:57;;;;;;;;;12.00;11.50;;;;;11.84;46.91;100185.16;4705367;29;102954;-78
2021/03/02 06:31:38;;;;;;;;;14.00;12.00;;;;;11.81;46.30;100180.91;4710668;29;102956;-78
2021/03/02 06:34:17;;;;;;;;;11.50;10.75;;;;;11.81;46.49;100183.63;4717595;29;104226;-78
2021/03/02 06:36:53;;;;;;;;;10.75;8.25;;;;;11.81;46.73;100185.50;4724195;29;102808;-78
2021/03/02 06:39:35;;;;;;;;;12.00;11.00;;;;;11.81;46.63;100183.63;4722921;29;102774;-78
2021/03/02 06:42:22;;;;;;;;;14.25;11.25;;;;;11.80;46.78;100186.50;4724905;29;102969;-78
2021/03/02 06:44:53;;;;;;;;;16.00;10.25;;;;;11.80;46.81;100181.09;4726645;29;103804;-78
2021/03/02 06:47:36;;;;;;;;;14.75;10.75;;;;;11.80;46.85;100181.09;4722337;29;102745;-78
2021/03/02 06:50:20;;;;;;;;;16.00;13.25;;;;;11.79;46.76;100182.13;4724309;29;102589;-78
2021/03/02 06:52:47;;;;;;;;;10.75;10.75;;;;;11.78;46.56;100175.00;4727497;29;102878;-78
2021/03/02 06:55:17;;;;;;;;;13.25;11.75;;;;;11.78;46.74;100185.84;4708470;29;104200;-78
2021/03/02 06:57:45;;;;;;;;;14.50;12.00;;;;;11.77;46.85;100189.56;4726162;29;103294;-78
2021/03/02 07:00:12;;;;;;;;;13.25;11.00;;;;;11.77;46.44;100186.84;4724817;29;102872;-78
2021/03/02 07:02:42;;;;;;;;;16.75;11.75;;;;;11.76;46.46;100186.00;4726373;29;102931;-78
2021/03/02 07:05:14;;;;;;;;;13.50;11.25;;;;;11.76;47.15;100182.44;4725351;29;104608;-78
2021/03/02 07:07:44;;;;;;;;;0.50;0.00;;;;;11.76;46.75;100186.00;4723984;29;102728;-78
2021/03/02 07:10:12;;;;;;;;;9.50;7.25;;;;;11.75;46.62;100187.03;4725105;29;102736;-78
2021/03/02 07:12:42;;;;;;;;;13.25;12.75;;;;;11.76;47.06;100185.16;4723494;29;103402;-78
2021/03/02 07:15:13;;;;;;;;;13.00;11.75;;;;;11.74;46.22;100181.78;4724113;29;104025;-78
2021/03/02 07:17:42;;;;;;;;;10.75;9.75;;;;;11.74;46.43;100181.78;4715871;29;102655;-78
2021/03/02 07:20:10;;;;;;;;;14.25;10.75;;;;;11.75;46.87;100175.34;4726566;29;102848;-78
2021/03/02 07:22:38;;;;;;;;;14.00;13.00;;;;;11.74;46.71;100181.78;4723913;29;102961;-78
2021/03/02 07:25:08;;;;;;;;;15.25;12.25;;;;;11.73;46.48;100189.06;4723382;29;104467;-78
2021/03/02 07:27:41;;;;;;;;;15.50;12.00;;;;;11.72;46.75;100184.66;4725646;29;102660;-78
2021/03/02 07:30:12;;;;;;;;;15.00;14.00;;;;;11.73;46.99;100186.34;4723302;29;102627;-78
2021/03/02 07:32:39;;;;;;;;;17.25;13.00;;;;;11.73;47.01;100196.34;4723359;29;103041;-78
2021/03/02 07:35:08;;;;;;;;;13.00;11.00;;;;;11.72;46.74;100195.50;4708233;29;104043;-78
2021/03/02 07:37:35;;;;;;;;;16.25;11.75;;;;;11.73;46.67;100193.63;4701924;29;102914;-78
2021/03/02 07:40:06;;;;;;;;;6.75;6.25;;;;;11.72;47.12;100183.78;4716161;29;102735;-78
2021/03/02 07:42:33;;;;;;;;;14.75;12.00;;;;;11.71;46.99;100188.34;4722037;29;102803;-78
2021/03/02 07:45:07;;;;;;;;;14.25;12.00;;;;;11.72;46.83;100191.91;4724432;29;104608;-78
2021/03/02 07:47:56;;;;;;;;;10.25;8.25;;;;;11.71;46.43;100192.94;4725090;29;102828;-78
2021/03/02 07:50:28;;;;;;;;;13.50;11.50;;;;;11.73;46.82;100202.59;4709133;29;102652;-78
2021/03/02 07:53:16;;;;;;;;;17.25;13.25;;;;;11.73;46.55;100196.34;4729034;29;102564;-78
2021/03/02 07:55:43;;;;;;;;;12.25;11.25;;;;;11.72;46.12;100203.63;4728244;29;104044;-78
2021/03/02 07:58:14;;;;;;;;;14.00;12.25;;;;;11.71;46.92;100204.59;4706588;29;103184;-78
2021/03/02 08:00:41;;;;;;;;;14.50;13.00;;;;;11.72;46.85;100210.88;4726161;29;102767;-78
2021/03/02 08:03:24;;;;;;;;;11.75;11.00;;;;;11.72;46.78;100211.75;4708226;29;102967;-78
2021/03/02 08:06:01;;;;;;;;;15.25;12.00;;;;;11.72;47.02;100200.91;4725804;29;104569;-78
2021/03/02 08:08:28;;;;;;;;;13.75;11.50;;;;;11.72;46.83;100197.31;4726665;29;102775;-78
2021/03/02 08:10:56;;;;;;;;;12.50;11.00;;;;;11.72;46.68;100198.19;4725495;29;102523;-78
2021/03/02 08:13:35;;;;;;;;;14.50;13.00;;;;;11.73;46.62;100186.34;4726248;29;102798;-78
2021/03/02 08:16:04;;;;;;;;;14.75;11.25;;;;;11.72;46.72;100178.34;4728404;29;104041;-78
2021/03/02 08:18:38;;;;;;;;;13.25;12.00;;;;;11.72;46.93;100183.78;4727254;29;102787;-78
2021/03/02 08:21:14;;;;;;;;;14.75;12.50;;;;;11.73;46.85;100188.22;4724887;29;102699;-78
2021/03/02 08:23:47;;;;;;;;;13.25;10.00;;;;;11.72;46.75;100187.38;4731233;29;102878;-78
2021/03/02 08:26:23;;;;;;;;;13.25;11.00;;;;;11.73;47.04;100196.34;4728826;29;104109;-78
2021/03/02 08:29:16;;;;;;;;;12.75;10.75;;;;;11.74;46.69;100198.03;4724854;29;103354;-78
2021/03/02 08:31:44;;;;;;;;;13.75;12.75;;;;;11.72;46.67;100202.72;4725882;29;102674;-78
2021/03/02 08:34:12;;;;;;;;;14.50;11.25;;;;;11.72;46.71;100210.88;4729262;29;102676;-78
2021/03/02 08:36:39;;;;;;;;;20.50;14.75;;;;;11.71;46.75;100204.59;4726493;29;104101;-78
2021/03/02 08:39:14;;;;;;;;;11.00;9.75;;;;;11.72;46.55;100200.03;4724932;29;102711;-78
2021/03/02 08:41:42;;;;;;;;;15.50;13.00;;;;;11.72;46.93;100195.50;4727450;29;102679;-78
2021/03/02 08:44:23;;;;;;;;;15.00;13.00;;;;;11.73;46.68;100193.63;4720247;29;102921;-78
2021/03/02 08:46:50;;;;;;;;;18.75;14.75;;;;;11.73;46.46;100193.63;4711032;29;104165;-78
2021/03/02 08:49:19;;;;;;;;;12.25;10.75;;;;;11.73;46.47;100190.91;4727867;29;102576;-78
2021/03/02 08:51:45;;;;;;;;;14.75;12.25;;;;;11.72;46.70;100192.78;4726093;29;102576;-78
2021/03/02 08:54:13;;;;;;;;;12.50;10.75;;;;;11.73;46.93;100185.50;4725160;29;102729;-78
2021/03/02 08:56:40;;;;;;;;;14.75;11.25;;;;;11.73;46.52;100196.34;4727276;29;104059;-78
2021/03/02 08:59:08;;;;;;;;;14.00;12.00;;;;;11.73;46.69;100199.91;4723943;29;102732;-78
2021/03/02 09:01:39;;;;;;;;;13.50;12.00;;;;;11.74;46.69;100195.34;4726944;29;102568;-78
2021/03/02 09:04:19;;;;;;;;;13.75;11.00;;;;;11.74;46.83;100181.78;4724963;29;102807;-78
2021/03/02 09:06:47;;;;;;;;;13.75;10.25;;;;;11.74;46.50;100192.63;4726366;29;104088;-78
2021/03/02 09:09:20;;;;;;;;;11.00;11.00;;;;;11.74;46.21;100192.63;4725730;29;102790;-78
2021/03/02 09:11:51;;;;;;;;;14.00;11.75;;;;;11.74;46.68;100193.47;4727517;29;102708;-78
2021/03/02 09:14:25;;;;;;;;;16.75;13.25;;;;;11.74;46.54;100193.47;4725996;29;104049;-78
2021/03/02 09:16:54;;;;;;;;;14.75;13.00;;;;;11.74;46.54;100187.19;4724654;29;104229;-78
2021/03/02 09:19:22;;;;;;;;;12.50;11.25;;;;;11.74;46.57;100182.63;4725335;29;102494;-78
2021/03/02 09:21:59;;;;;;;;;13.50;12.25;;;;;11.76;46.50;100190.56;4727888;29;102756;-78
2021/03/02 09:24:42;;;;;;;;;14.00;11.00;;;;;11.76;46.16;100177.03;4727211;29;103082;-78
2021/03/02 09:27:14;;;;;;;;;15.25;12.75;;;;;11.77;46.78;100184.13;4721426;29;104110;-78
2021/03/02 09:29:42;;;;;;;;;13.25;12.75;;;;;11.77;46.94;100181.44;4709940;29;102717;-78
2021/03/02 09:32:10;;;;;;;;;15.25;12.00;;;;;11.77;46.14;100174.16;4709154;29;103045;-78
2021/03/02 09:34:43;;;;;;;;;15.25;12.25;;;;;11.79;46.78;100190.25;4727952;29;102697;-78
2021/03/02 09:37:17;;;;;;;;;15.25;12.00;;;;;11.79;46.70;100190.25;4726966;29;103648;-78
2021/03/02 09:40:04;;;;;;;;;12.75;11.00;;;;;11.78;46.26;100181.28;4725372;29;102668;-78
2021/03/02 09:42:33;;;;;;;;;15.25;12.00;;;;;11.80;46.62;100191.91;4726624;29;102674;-78
2021/03/02 09:45:01;;;;;;;;;14.75;13.25;;;;;11.79;46.75;100182.13;4725289;29;102931;-78
2021/03/02 09:47:31;;;;;;;;;12.50;11.75;;;;;11.80;46.61;100184.63;4726625;29;104419;-78
2021/03/02 09:50:02;;;;;;;;;14.00;10.75;;;;;11.80;46.54;100189.22;4726129;29;102799;-78
2021/03/02 09:52:36;;;;;;;;;11.00;8.25;;;;;11.81;46.76;100199.88;4725042;29;103002;-78
2021/03/02 09:55:14;;;;;;;;;7.25;6.75;;;;;11.82;46.62;100200.75;4728911;29;102943;-78
2021/03/02 09:58:14;;;;;;;;;13.00;12.00;;;;;11.82;46.61;100212.44;4729970;29;104454;-78
2021/03/02 10:00:49;;;;;;;;;17.75;12.00;;;;;11.83;46.90;100197.03;4726925;29;102505;-78
2021/03/02 10:03:24;;;;;;;;;14.00;12.25;;;;;11.84;46.18;100209.56;4729897;29;102519;-78
2021/03/02 10:06:04;;;;;;;;;13.50;11.50;;;;;11.83;46.63;100208.72;4730432;29;102664;-78
2021/03/02 10:08:35;;;;;;;;;14.25;12.00;;;;;11.84;46.59;100204.16;4728774;29;104075;-78
2021/03/02 10:11:04;;;;;;;;;8.50;7.00;;;;;11.85;46.58;100201.25;4729995;29;102675;-78
2021/03/02 10:13:35;;;;;;;;;11.00;10.50;;;;;11.85;46.09;100194.97;4730300;29;102686;-78
2021/03/02 10:16:24;;;;;;;;;12.25;10.25;;;;;11.86;46.68;100188.53;4728549;29;102808;-78
2021/03/02 10:19:03;;;;;;;;;12.75;12.00;;;;;11.86;46.19;100197.53;4727143;29;104428;-78
2021/03/02 10:21:40;;;;;;;;;15.00;11.25;;;;;11.88;46.24;100194.66;4729247;29;102618;-78
2021/03/02 10:24:08;;;;;;;;;12.50;11.00;;;;;11.86;45.90;100185.81;4724666;29;102645;-78
2021/03/02 10:26:37;;;;;;;;;11.75;9.50;;;;;11.89;46.17;100186.31;4727859;29;103001;-78
2021/03/02 10:29:06;;;;;;;;;12.00;10.25;;;;;11.90;46.24;100187.19;4723470;29;103891;-78
2021/03/02 10:31:33;;;;;;;;;8.25;6.75;;;;;11.90;46.24;100184.47;4705024;29;102705;-78
2021/03/02 10:34:01;;;;;;;;;17.75;13.75;;;;;11.91;46.06;100176.19;4726292;29;102715;-78
2021/03/02 10:36:29;;;;;;;;;11.00;9.00;;;;;11.94;46.60;100177.69;4724351;29;102789;-78
2021/03/02 10:38:57;;;;;;;;;13.25;10.50;;;;;11.93;46.23;100170.59;4723728;29;103941;-78
2021/03/02 10:41:24;;;;;;;;;12.25;10.75;;;;;11.95;46.50;100163.97;4704984;29;102914;-78
2021/03/02 10:43:52;;;;;;;;;11.00;8.25;;;;;11.96;45.95;100164.81;4723011;29;102795;-78
2021/03/02 10:46:19;;;;;;;;;11.50;8.25;;;;;11.97;45.86;100164.66;4722419;29;103013;-78
2021/03/02 10:48:46;;;;;;;;;10.25;9.75;;;;;11.98;45.99;100162.75;4722746;29;104354;-78
2021/03/02 10:51:14;;;;;;;;;12.00;9.75;;;;;11.99;45.97;100150.91;4724542;29;102712;-78
2021/03/02 10:53:41;;;;;;;;;12.00;11.00;;;;;12.00;45.74;100155.31;4709137;29;102707;-78
2021/03/02 10:56:07;;;;;;;;;10.50;8.25;;;;;12.02;46.45;100142.47;4724765;29;102821;-78
2021/03/02 10:58:34;;;;;;;;;9.75;8.25;;;;;12.05;45.95;100150.22;4721800;29;104058;-78
2021/03/02 11:01:01;;;;;;;;;13.00;10.75;;;;;12.04;45.96;100145.81;4722245;29;103320;-78
2021/03/02 11:03:29;;;;;;;;;11.00;8.00;;;;;12.06;46.39;100154.66;4723699;29;102963;-78
2021/03/02 11:05:55;;;;;;;;;11.00;7.50;;;;;12.05;45.97;100145.66;4708935;29;102850;-78
2021/03/02 11:08:22;;;;;;;;;11.25;10.00;;;;;12.04;46.07;100141.25;4720877;29;104597;-78
2021/03/02 11:10:49;;;;;;;;;13.75;10.00;;;;;12.08;46.01;100139.88;4724569;29;102797;-78
2021/03/02 11:13:16;;;;;;;;;12.50;10.50;;;;;12.08;45.77;100137.16;4699828;29;102707;-78
2021/03/02 11:15:43;;;;;;;;;15.00;12.00;;;;;12.11;45.74;100135.16;4722438;29;103124;-78
2021/03/02 11:18:10;;;;;;;;;10.50;7.50;;;;;12.11;45.64;100125.16;4722577;29;103946;-78
2021/03/02 11:20:43;;;;;;;;;13.00;11.00;;;;;12.15;46.19;100126.50;4721670;29;102759;-78